sensor_id;sensor_type;location;lat;lon;timestamp;temperature;humidity
54461;DHT22;40371;49.414;11.010;2022-12-29T00:01:34;7.50;99.90
54461;DHT22;40371;49.414;11.010;2022-12-29T00:04:00;7.50;99.90
54461;DHT22;40371;49.414;11.010;2022-12-29T00:06:26;7.50;99.90
54461;DHT22;40371;49.414;11.010;2022-12-29T00:08:52;7.50;99.90
54461;DHT22;40371;49.414;11.010;2022-12-29T00:11:20;7.60;99.90
54461;DHT22;40371;49.414;11.010;2022-12-29T00:13:46;7.60;99.90
54461;DHT22;40371;49.414;11.010;2022-12-29T00:16:32;7.60;99.90
54461;DHT22;40371;49.414;11.010;2022-12-29T00:18:58;7.50;99.90
54461;DHT22;40371;49.414;11.010;2022-12-29T00:21:25;7.60;99.90
54461;DHT22;40371;49.414;11.010;2022-12-29T00:24:13;7.60;99.90
54461;DHT22;40371;49.414;11.010;2022-12-29T00:29:48;7.50;99.90
54461;DHT22;40371;49.414;11.010;2022-12-29T00:32:33;7.50;99.90
54461;DHT22;40371;49.414;11.010;2022-12-29T00:37:49;7.60;99.90
54461;DHT22;40371;49.414;11.010;2022-12-29T00:40:34;7.60;99.90
54461;DHT22;40371;49.414;11.010;2022-12-29T00:43:20;7.50;99.90
54461;DHT22;40371;49.414;11.010;2022-12-29T00:46:04;7.50;99.90
54461;DHT22;40371;49.414;11.010;2022-12-29T00:48:29;7.60;99.90
54461;DHT22;40371;49.414;11.010;2022-12-29T00:51:14;7.60;99.90
54461;DHT22;40371;49.414;11.010;2022-12-29T00:53:40;7.50;99.90
54461;DHT22;40371;49.414;11.010;2022-12-29T00:56:05;7.50;99.90
54461;DHT22;40371;49.414;11.010;2022-12-29T00:58:31;7.50;99.90
54461;DHT22;40371;49.414;11.010;2022-12-29T01:01:04;7.50;99.90
54461;DHT22;40371;49.414;11.010;2022-12-29T01:03:30;7.60;99.90
54461;DHT22;40371;49.414;11.010;2022-12-29T01:05:56;7.60;99.90
54461;DHT22;40371;49.414;11.010;2022-12-29T01:08:27;7.60;99.90
54461;DHT22;40371;49.414;11.010;2022-12-29T01:11:07;7.60;99.90
54461;DHT22;40371;49.414;11.010;2022-12-29T01:13:34;7.70;99.90
54461;DHT22;40371;49.414;11.010;2022-12-29T01:15:59;7.70;99.90
54461;DHT22;40371;49.414;11.010;2022-12-29T01:18:26;7.60;99.90
54461;DHT22;40371;49.414;11.010;2022-12-29T01:21:01;7.60;99.90
54461;DHT22;40371;49.414;11.010;2022-12-29T01:23:27;7.50;99.90
54461;DHT22;40371;49.414;11.010;2022-12-29T01:25:53;7.60;99.90
54461;DHT22;40371;49.414;11.010;2022-12-29T01:28:19;7.50;99.90
54461;DHT22;40371;49.414;11.010;2022-12-29T01:30:45;7.60;99.90
54461;DHT22;40371;49.414;11.010;2022-12-29T01:33:12;7.60;99.90
54461;DHT22;40371;49.414;11.010;2022-12-29T01:35:39;7.70;99.90
54461;DHT22;40371;49.414;11.010;2022-12-29T01:38:04;7.70;99.90
54461;DHT22;40371;49.414;11.010;2022-12-29T01:40:30;7.80;99.90
54461;DHT22;40371;49.414;11.010;2022-12-29T01:42:56;7.80;99.90
54461;DHT22;40371;49.414;11.010;2022-12-29T01:45:21;7.80;99.90
54461;DHT22;40371;49.414;11.010;2022-12-29T01:48:02;7.90;99.90
54461;DHT22;40371;49.414;11.010;2022-12-29T01:50:32;8.00;99.90
54461;DHT22;40371;49.414;11.010;2022-12-29T01:53:26;8.00;99.90
54461;DHT22;40371;49.414;11.010;2022-12-29T01:56:00;8.10;99.90
54461;DHT22;40371;49.414;11.010;2022-12-29T01:58:31;8.10;99.90
54461;DHT22;40371;49.414;11.010;2022-12-29T02:00:58;8.10;99.90
54461;DHT22;40371;49.414;11.010;2022-12-29T02:03:25;8.10;99.90
54461;DHT22;40371;49.414;11.010;2022-12-29T02:06:07;8.20;99.90
54461;DHT22;40371;49.414;11.010;2022-12-29T02:08:38;8.30;99.90
54461;DHT22;40371;49.414;11.010;2022-12-29T02:11:05;8.30;99.90
54461;DHT22;40371;49.414;11.010;2022-12-29T02:13:33;8.30;99.90
54461;DHT22;40371;49.414;11.010;2022-12-29T02:16:37;8.30;99.90
54461;DHT22;40371;49.414;11.010;2022-12-29T02:20:01;8.30;99.90
54461;DHT22;40371;49.414;11.010;2022-12-29T02:37:06;8.30;99.90
54461;DHT22;40371;49.414;11.010;2022-12-29T02:43:03;8.40;99.90
54461;DHT22;40371;49.414;11.010;2022-12-29T02:45:47;8.50;99.90
54461;DHT22;40371;49.414;11.010;2022-12-29T02:48:31;8.50;99.90
54461;DHT22;40371;49.414;11.010;2022-12-29T02:51:12;8.50;99.90
54461;DHT22;40371;49.414;11.010;2022-12-29T02:53:41;8.60;99.90
54461;DHT22;40371;49.414;11.010;2022-12-29T02:56:26;8.60;99.90
54461;DHT22;40371;49.414;11.010;2022-12-29T02:58:52;8.60;99.90
54461;DHT22;40371;49.414;11.010;2022-12-29T03:07:34;8.70;99.90
54461;DHT22;40371;49.414;11.010;2022-12-29T03:10:14;8.70;99.90
54461;DHT22;40371;49.414;11.010;2022-12-29T03:16:15;8.60;99.90
54461;DHT22;40371;49.414;11.010;2022-12-29T03:18:51;8.80;99.90
54461;DHT22;40371;49.414;11.010;2022-12-29T03:21:37;8.70;99.90
54461;DHT22;40371;49.414;11.010;2022-12-29T03:24:29;8.70;99.90
54461;DHT22;40371;49.414;11.010;2022-12-29T03:26:58;8.70;99.90
54461;DHT22;40371;49.414;11.010;2022-12-29T03:29:29;8.70;99.90
54461;DHT22;40371;49.414;11.010;2022-12-29T03:31:56;8.70;99.90
54461;DHT22;40371;49.414;11.010;2022-12-29T03:34:24;8.80;99.90
54461;DHT22;40371;49.414;11.010;2022-12-29T03:36:58;8.80;99.90
54461;DHT22;40371;49.414;11.010;2022-12-29T03:39:27;8.80;99.90
54461;DHT22;40371;49.414;11.010;2022-12-29T03:41:59;8.90;99.90
54461;DHT22;40371;49.414;11.010;2022-12-29T03:44:35;8.90;99.90
54461;DHT22;40371;49.414;11.010;2022-12-29T03:47:02;8.90;99.90
54461;DHT22;40371;49.414;11.010;2022-12-29T03:49:28;8.90;99.90
54461;DHT22;40371;49.414;11.010;2022-12-29T03:51:54;8.80;99.90
54461;DHT22;40371;49.414;11.010;2022-12-29T03:54:20;8.80;99.90
54461;DHT22;40371;49.414;11.010;2022-12-29T03:56:46;8.80;99.90
54461;DHT22;40371;49.414;11.010;2022-12-29T03:59:15;8.70;99.90
54461;DHT22;40371;49.414;11.010;2022-12-29T04:01:41;8.70;99.90
54461;DHT22;40371;49.414;11.010;2022-12-29T04:04:07;8.70;99.90
54461;DHT22;40371;49.414;11.010;2022-12-29T04:06:32;8.70;99.90
54461;DHT22;40371;49.414;11.010;2022-12-29T04:09:04;8.60;99.90
54461;DHT22;40371;49.414;11.010;2022-12-29T04:11:34;8.60;99.90
54461;DHT22;40371;49.414;11.010;2022-12-29T04:14:01;8.60;99.90
54461;DHT22;40371;49.414;11.010;2022-12-29T04:16:28;8.50;99.90
54461;DHT22;40371;49.414;11.010;2022-12-29T04:18:54;8.50;99.90
54461;DHT22;40371;49.414;11.010;2022-12-29T04:21:19;8.60;99.90
54461;DHT22;40371;49.414;11.010;2022-12-29T04:23:47;8.50;99.90
54461;DHT22;40371;49.414;11.010;2022-12-29T04:26:14;8.40;99.90
54461;DHT22;40371;49.414;11.010;2022-12-29T04:28:52;8.30;99.90
54461;DHT22;40371;49.414;11.010;2022-12-29T04:31:39;8.20;99.90
54461;DHT22;40371;49.414;11.010;2022-12-29T04:34:06;8.10;99.90
54461;DHT22;40371;49.414;11.010;2022-12-29T04:36:32;8.10;99.90
54461;DHT22;40371;49.414;11.010;2022-12-29T04:38:58;8.00;99.90
54461;DHT22;40371;49.414;11.010;2022-12-29T04:41:24;8.00;99.90
54461;DHT22;40371;49.414;11.010;2022-12-29T04:43:50;8.00;99.90
54461;DHT22;40371;49.414;11.010;2022-12-29T04:46:45;8.10;99.90
54461;DHT22;40371;49.414;11.010;2022-12-29T04:49:30;8.20;99.90
54461;DHT22;40371;49.414;11.010;2022-12-29T04:52:14;8.30;99.90
54461;DHT22;40371;49.414;11.010;2022-12-29T04:54:41;8.30;99.90
54461;DHT22;40371;49.414;11.010;2022-12-29T04:57:13;8.40;99.90
54461;DHT22;40371;49.414;11.010;2022-12-29T04:59:39;8.30;99.90
54461;DHT22;40371;49.414;11.010;2022-12-29T05:02:04;8.20;99.90
54461;DHT22;40371;49.414;11.010;2022-12-29T05:04:32;8.20;99.90
54461;DHT22;40371;49.414;11.010;2022-12-29T05:06:57;8.00;99.90
54461;DHT22;40371;49.414;11.010;2022-12-29T05:09:23;8.00;99.90
54461;DHT22;40371;49.414;11.010;2022-12-29T05:11:49;7.90;99.90
54461;DHT22;40371;49.414;11.010;2022-12-29T05:14:15;7.90;99.90
54461;DHT22;40371;49.414;11.010;2022-12-29T05:16:42;7.90;99.90
54461;DHT22;40371;49.414;11.010;2022-12-29T05:19:08;7.90;99.90
54461;DHT22;40371;49.414;11.010;2022-12-29T05:21:34;8.00;99.90
54461;DHT22;40371;49.414;11.010;2022-12-29T05:23:59;8.00;99.90
54461;DHT22;40371;49.414;11.010;2022-12-29T05:26:25;8.10;99.90
54461;DHT22;40371;49.414;11.010;2022-12-29T05:28:59;8.10;99.90
54461;DHT22;40371;49.414;11.010;2022-12-29T05:31:25;8.10;99.90
54461;DHT22;40371;49.414;11.010;2022-12-29T05:33:51;8.10;99.90
54461;DHT22;40371;49.414;11.010;2022-12-29T05:36:17;8.00;99.90
54461;DHT22;40371;49.414;11.010;2022-12-29T05:38:47;8.00;99.90
54461;DHT22;40371;49.414;11.010;2022-12-29T05:41:13;8.00;99.90
54461;DHT22;40371;49.414;11.010;2022-12-29T05:43:57;8.00;99.90
54461;DHT22;40371;49.414;11.010;2022-12-29T05:46:29;8.00;99.90
54461;DHT22;40371;49.414;11.010;2022-12-29T05:49:16;7.90;99.90
54461;DHT22;40371;49.414;11.010;2022-12-29T05:51:52;7.90;99.90
54461;DHT22;40371;49.414;11.010;2022-12-29T05:54:17;7.90;99.90
54461;DHT22;40371;49.414;11.010;2022-12-29T05:56:43;7.90;99.90
54461;DHT22;40371;49.414;11.010;2022-12-29T05:59:09;7.90;99.90
54461;DHT22;40371;49.414;11.010;2022-12-29T06:01:35;7.90;99.90
54461;DHT22;40371;49.414;11.010;2022-12-29T06:04:01;7.80;99.90
54461;DHT22;40371;49.414;11.010;2022-12-29T06:06:27;7.70;99.90
54461;DHT22;40371;49.414;11.010;2022-12-29T06:08:52;7.70;99.90
54461;DHT22;40371;49.414;11.010;2022-12-29T06:11:19;7.70;99.90
54461;DHT22;40371;49.414;11.010;2022-12-29T06:13:51;7.70;99.90
54461;DHT22;40371;49.414;11.010;2022-12-29T06:16:16;7.70;99.90
54461;DHT22;40371;49.414;11.010;2022-12-29T06:18:42;7.60;99.90
54461;DHT22;40371;49.414;11.010;2022-12-29T06:21:08;7.60;99.90
54461;DHT22;40371;49.414;11.010;2022-12-29T06:23:35;7.60;99.90
54461;DHT22;40371;49.414;11.010;2022-12-29T06:26:00;7.50;99.90
54461;DHT22;40371;49.414;11.010;2022-12-29T06:28:28;7.60;99.90
54461;DHT22;40371;49.414;11.010;2022-12-29T06:30:54;7.50;99.90
54461;DHT22;40371;49.414;11.010;2022-12-29T06:33:19;7.50;99.90
54461;DHT22;40371;49.414;11.010;2022-12-29T06:35:46;7.50;99.90
54461;DHT22;40371;49.414;11.010;2022-12-29T06:38:11;7.60;99.90
54461;DHT22;40371;49.414;11.010;2022-12-29T06:40:37;7.50;99.90
54461;DHT22;40371;49.414;11.010;2022-12-29T06:43:23;7.50;99.90
54461;DHT22;40371;49.414;11.010;2022-12-29T06:46:00;7.50;99.90
54461;DHT22;40371;49.414;11.010;2022-12-29T06:48:26;7.60;99.90
54461;DHT22;40371;49.414;11.010;2022-12-29T06:50:52;7.70;99.90
54461;DHT22;40371;49.414;11.010;2022-12-29T06:53:17;7.70;99.90
54461;DHT22;40371;49.414;11.010;2022-12-29T06:55:43;7.80;99.90
54461;DHT22;40371;49.414;11.010;2022-12-29T06:58:08;7.90;99.90
54461;DHT22;40371;49.414;11.010;2022-12-29T07:00:34;7.90;99.90
54461;DHT22;40371;49.414;11.010;2022-12-29T07:03:00;7.90;99.90
54461;DHT22;40371;49.414;11.010;2022-12-29T07:05:26;7.90;99.90
54461;DHT22;40371;49.414;11.010;2022-12-29T07:07:56;8.00;99.90
54461;DHT22;40371;49.414;11.010;2022-12-29T07:10:22;7.90;99.90
54461;DHT22;40371;49.414;11.010;2022-12-29T07:12:48;7.90;99.90
54461;DHT22;40371;49.414;11.010;2022-12-29T07:15:13;7.90;99.90
54461;DHT22;40371;49.414;11.010;2022-12-29T07:17:39;8.00;99.90
54461;DHT22;40371;49.414;11.010;2022-12-29T07:20:05;7.90;99.90
54461;DHT22;40371;49.414;11.010;2022-12-29T07:22:31;7.90;99.90
54461;DHT22;40371;49.414;11.010;2022-12-29T07:24:57;7.90;99.90
54461;DHT22;40371;49.414;11.010;2022-12-29T07:27:22;7.80;99.90
54461;DHT22;40371;49.414;11.010;2022-12-29T07:29:48;7.80;99.90
54461;DHT22;40371;49.414;11.010;2022-12-29T07:32:14;8.00;99.90
54461;DHT22;40371;49.414;11.010;2022-12-29T07:34:39;8.00;99.90
54461;DHT22;40371;49.414;11.010;2022-12-29T07:37:05;8.20;99.90
54461;DHT22;40371;49.414;11.010;2022-12-29T07:39:31;8.50;99.90
54461;DHT22;40371;49.414;11.010;2022-12-29T07:41:56;8.50;99.90
54461;DHT22;40371;49.414;11.010;2022-12-29T07:44:24;8.40;99.90
54461;DHT22;40371;49.414;11.010;2022-12-29T07:46:57;8.40;99.90
54461;DHT22;40371;49.414;11.010;2022-12-29T07:49:23;8.30;99.90
54461;DHT22;40371;49.414;11.010;2022-12-29T07:51:49;8.30;99.90
54461;DHT22;40371;49.414;11.010;2022-12-29T07:54:14;8.40;99.90
54461;DHT22;40371;49.414;11.010;2022-12-29T07:56:43;8.40;99.90
54461;DHT22;40371;49.414;11.010;2022-12-29T07:59:09;8.40;99.90
54461;DHT22;40371;49.414;11.010;2022-12-29T08:01:35;8.50;99.90
54461;DHT22;40371;49.414;11.010;2022-12-29T08:04:00;8.60;99.90
54461;DHT22;40371;49.414;11.010;2022-12-29T08:06:26;8.60;99.90
54461;DHT22;40371;49.414;11.010;2022-12-29T08:08:51;8.70;99.90
54461;DHT22;40371;49.414;11.010;2022-12-29T08:11:17;8.70;99.90
54461;DHT22;40371;49.414;11.010;2022-12-29T08:13:43;8.70;99.90
54461;DHT22;40371;49.414;11.010;2022-12-29T08:16:08;8.90;99.90
54461;DHT22;40371;49.414;11.010;2022-12-29T08:18:34;8.90;99.90
54461;DHT22;40371;49.414;11.010;2022-12-29T08:21:03;8.90;99.90
54461;DHT22;40371;49.414;11.010;2022-12-29T08:23:29;9.00;99.90
54461;DHT22;40371;49.414;11.010;2022-12-29T08:25:59;9.10;99.90
54461;DHT22;40371;49.414;11.010;2022-12-29T08:28:25;9.20;99.90
54461;DHT22;40371;49.414;11.010;2022-12-29T08:30:52;9.20;99.90
54461;DHT22;40371;49.414;11.010;2022-12-29T08:33:17;9.30;99.90
54461;DHT22;40371;49.414;11.010;2022-12-29T08:35:44;9.40;99.90
54461;DHT22;40371;49.414;11.010;2022-12-29T08:38:10;9.50;99.90
54461;DHT22;40371;49.414;11.010;2022-12-29T08:40:37;9.70;99.90
54461;DHT22;40371;49.414;11.010;2022-12-29T08:43:02;9.80;99.90
54461;DHT22;40371;49.414;11.010;2022-12-29T08:45:28;9.80;99.90
54461;DHT22;40371;49.414;11.010;2022-12-29T08:47:53;10.00;99.90
54461;DHT22;40371;49.414;11.010;2022-12-29T08:50:19;10.10;99.90
54461;DHT22;40371;49.414;11.010;2022-12-29T08:52:45;10.30;99.90
54461;DHT22;40371;49.414;11.010;2022-12-29T08:55:10;10.20;99.90
54461;DHT22;40371;49.414;11.010;2022-12-29T08:57:36;10.20;99.90
54461;DHT22;40371;49.414;11.010;2022-12-29T09:00:07;10.20;99.90
54461;DHT22;40371;49.414;11.010;2022-12-29T09:02:33;10.40;99.90
54461;DHT22;40371;49.414;11.010;2022-12-29T09:04:58;10.40;99.90
54461;DHT22;40371;49.414;11.010;2022-12-29T09:07:25;10.30;99.90
54461;DHT22;40371;49.414;11.010;2022-12-29T09:09:51;10.30;99.90
54461;DHT22;40371;49.414;11.010;2022-12-29T09:12:17;10.30;99.90
54461;DHT22;40371;49.414;11.010;2022-12-29T09:14:43;10.50;99.90
54461;DHT22;40371;49.414;11.010;2022-12-29T09:17:10;10.60;99.90
54461;DHT22;40371;49.414;11.010;2022-12-29T09:19:54;11.10;99.90
54461;DHT22;40371;49.414;11.010;2022-12-29T09:22:20;11.40;99.90
54461;DHT22;40371;49.414;11.010;2022-12-29T09:24:46;11.50;99.90
54461;DHT22;40371;49.414;11.010;2022-12-29T09:27:11;11.20;99.90
54461;DHT22;40371;49.414;11.010;2022-12-29T09:29:37;11.70;99.90
54461;DHT22;40371;49.414;11.010;2022-12-29T09:32:03;12.20;99.90
54461;DHT22;40371;49.414;11.010;2022-12-29T09:34:29;12.40;99.90
54461;DHT22;40371;49.414;11.010;2022-12-29T09:36:54;13.20;99.90
54461;DHT22;40371;49.414;11.010;2022-12-29T09:39:22;13.70;99.90
54461;DHT22;40371;49.414;11.010;2022-12-29T09:47:33;12.20;99.90
54461;DHT22;40371;49.414;11.010;2022-12-29T09:50:09;12.10;99.90
54461;DHT22;40371;49.414;11.010;2022-12-29T09:52:40;12.20;99.90
54461;DHT22;40371;49.414;11.010;2022-12-29T09:55:15;12.10;99.90
54461;DHT22;40371;49.414;11.010;2022-12-29T10:00:14;11.90;99.90
54461;DHT22;40371;49.414;11.010;2022-12-29T10:02:44;11.90;99.90
54461;DHT22;40371;49.414;11.010;2022-12-29T10:05:31;12.00;99.90
54461;DHT22;40371;49.414;11.010;2022-12-29T10:10:56;11.80;99.90
54461;DHT22;40371;49.414;11.010;2022-12-29T10:13:54;11.60;99.90
54461;DHT22;40371;49.414;11.010;2022-12-29T10:16:30;11.60;99.90
54461;DHT22;40371;49.414;11.010;2022-12-29T10:19:02;11.70;99.90
54461;DHT22;40371;49.414;11.010;2022-12-29T10:24:24;11.50;99.90
54461;DHT22;40371;49.414;11.010;2022-12-29T10:26:52;11.50;99.90
54461;DHT22;40371;49.414;11.010;2022-12-29T10:29:24;11.50;99.90
54461;DHT22;40371;49.414;11.010;2022-12-29T10:32:21;11.50;99.90
54461;DHT22;40371;49.414;11.010;2022-12-29T10:34:52;11.60;99.90
54461;DHT22;40371;49.414;11.010;2022-12-29T10:39:58;11.50;99.90
54461;DHT22;40371;49.414;11.010;2022-12-29T10:42:34;11.70;99.90
54461;DHT22;40371;49.414;11.010;2022-12-29T10:45:02;11.50;99.90
54461;DHT22;40371;49.414;11.010;2022-12-29T10:47:38;11.50;99.90
54461;DHT22;40371;49.414;11.010;2022-12-29T10:50:07;11.60;99.90
54461;DHT22;40371;49.414;11.010;2022-12-29T10:52:38;11.60;99.90
54461;DHT22;40371;49.414;11.010;2022-12-29T10:55:24;11.60;99.90
54461;DHT22;40371;49.414;11.010;2022-12-29T10:57:53;11.60;99.90
54461;DHT22;40371;49.414;11.010;2022-12-29T11:00:21;11.80;99.90
54461;DHT22;40371;49.414;11.010;2022-12-29T11:05:54;11.80;99.90
54461;DHT22;40371;49.414;11.010;2022-12-29T11:08:27;11.90;99.90
54461;DHT22;40371;49.414;11.010;2022-12-29T11:11:02;11.90;99.90
54461;DHT22;40371;49.414;11.010;2022-12-29T11:13:31;11.90;99.90
54461;DHT22;40371;49.414;11.010;2022-12-29T11:15:57;12.00;99.90
54461;DHT22;40371;49.414;11.010;2022-12-29T11:18:26;11.90;99.90
54461;DHT22;40371;49.414;11.010;2022-12-29T11:20:58;12.20;99.90
54461;DHT22;40371;49.414;11.010;2022-12-29T11:23:38;12.20;99.90
54461;DHT22;40371;49.414;11.010;2022-12-29T11:28:33;12.80;99.90
54461;DHT22;40371;49.414;11.010;2022-12-29T11:31:00;12.40;99.90
54461;DHT22;40371;49.414;11.010;2022-12-29T11:33:31;12.50;99.90
54461;DHT22;40371;49.414;11.010;2022-12-29T11:36:10;12.40;99.90
54461;DHT22;40371;49.414;11.010;2022-12-29T11:38:45;12.50;99.90
54461;DHT22;40371;49.414;11.010;2022-12-29T11:41:13;12.40;99.90
54461;DHT22;40371;49.414;11.010;2022-12-29T11:43:44;12.50;99.90
54461;DHT22;40371;49.414;11.010;2022-12-29T11:46:18;12.60;99.90
54461;DHT22;40371;49.414;11.010;2022-12-29T11:48:46;12.80;99.90
54461;DHT22;40371;49.414;11.010;2022-12-29T11:51:13;13.10;99.90
54461;DHT22;40371;49.414;11.010;2022-12-29T11:53:49;13.20;99.90
54461;DHT22;40371;49.414;11.010;2022-12-29T11:56:37;13.60;99.90
54461;DHT22;40371;49.414;11.010;2022-12-29T12:02:03;13.50;99.90
54461;DHT22;40371;49.414;11.010;2022-12-29T12:04:31;13.50;99.90
54461;DHT22;40371;49.414;11.010;2022-12-29T12:09:48;13.20;99.90
54461;DHT22;40371;49.414;11.010;2022-12-29T12:12:28;13.30;99.90
54461;DHT22;40371;49.414;11.010;2022-12-29T12:14:56;13.20;99.90
54461;DHT22;40371;49.414;11.010;2022-12-29T12:17:45;13.30;99.90
54461;DHT22;40371;49.414;11.010;2022-12-29T12:20:25;13.20;99.90
54461;DHT22;40371;49.414;11.010;2022-12-29T12:25:45;13.30;99.90
54461;DHT22;40371;49.414;11.010;2022-12-29T12:28:15;13.10;99.90
54461;DHT22;40371;49.414;11.010;2022-12-29T12:30:48;13.00;99.90
54461;DHT22;40371;49.414;11.010;2022-12-29T12:33:22;12.80;99.90
54461;DHT22;40371;49.414;11.010;2022-12-29T12:36:14;12.80;99.90
54461;DHT22;40371;49.414;11.010;2022-12-29T12:39:02;12.80;99.90
54461;DHT22;40371;49.414;11.010;2022-12-29T12:57:46;12.60;99.90
54461;DHT22;40371;49.414;11.010;2022-12-29T13:00:17;12.50;99.90
54461;DHT22;40371;49.414;11.010;2022-12-29T13:05:38;12.40;99.90
54461;DHT22;40371;49.414;11.010;2022-12-29T13:13:54;12.10;99.90
54461;DHT22;40371;49.414;11.010;2022-12-29T13:27:30;12.00;99.90
54461;DHT22;40371;49.414;11.010;2022-12-29T13:30:29;12.10;99.90
54461;DHT22;40371;49.414;11.010;2022-12-29T13:36:05;11.80;99.90
54461;DHT22;40371;49.414;11.010;2022-12-29T13:38:42;11.90;99.90
54461;DHT22;40371;49.414;11.010;2022-12-29T13:41:12;11.80;99.90
54461;DHT22;40371;49.414;11.010;2022-12-29T13:43:41;11.80;99.90
54461;DHT22;40371;49.414;11.010;2022-12-29T13:46:12;11.90;99.90
54461;DHT22;40371;49.414;11.010;2022-12-29T13:48:44;11.90;99.90
54461;DHT22;40371;49.414;11.010;2022-12-29T13:51:11;12.00;99.90
54461;DHT22;40371;49.414;11.010;2022-12-29T13:54:00;11.90;99.90
54461;DHT22;40371;49.414;11.010;2022-12-29T13:56:39;11.90;99.90
54461;DHT22;40371;49.414;11.010;2022-12-29T14:02:13;11.90;99.90
54461;DHT22;40371;49.414;11.010;2022-12-29T14:04:56;11.90;99.90
54461;DHT22;40371;49.414;11.010;2022-12-29T14:07:22;11.90;99.90
54461;DHT22;40371;49.414;11.010;2022-12-29T14:09:52;11.90;99.90
54461;DHT22;40371;49.414;11.010;2022-12-29T14:12:31;11.80;99.90
54461;DHT22;40371;49.414;11.010;2022-12-29T14:17:42;11.70;99.90
54461;DHT22;40371;49.414;11.010;2022-12-29T14:20:22;11.60;99.90
54461;DHT22;40371;49.414;11.010;2022-12-29T14:22:59;11.60;99.90
54461;DHT22;40371;49.414;11.010;2022-12-29T14:28:28;11.60;99.90
54461;DHT22;40371;49.414;11.010;2022-12-29T14:30:59;11.50;99.90
54461;DHT22;40371;49.414;11.010;2022-12-29T14:33:27;11.60;99.90
54461;DHT22;40371;49.414;11.010;2022-12-29T14:35:53;11.60;99.90
54461;DHT22;40371;49.414;11.010;2022-12-29T14:38:23;11.60;99.90
54461;DHT22;40371;49.414;11.010;2022-12-29T14:40:50;11.70;99.90
54461;DHT22;40371;49.414;11.010;2022-12-29T14:43:25;11.70;99.90
54461;DHT22;40371;49.414;11.010;2022-12-29T14:45:55;11.50;99.90
54461;DHT22;40371;49.414;11.010;2022-12-29T14:48:42;11.50;99.90
54461;DHT22;40371;49.414;11.010;2022-12-29T14:51:20;11.50;99.90
54461;DHT22;40371;49.414;11.010;2022-12-29T14:53:50;11.50;99.90
54461;DHT22;40371;49.414;11.010;2022-12-29T14:56:18;11.40;99.90
54461;DHT22;40371;49.414;11.010;2022-12-29T15:01:44;11.40;99.90
54461;DHT22;40371;49.414;11.010;2022-12-29T15:04:30;11.50;99.90
54461;DHT22;40371;49.414;11.010;2022-12-29T15:06:56;11.50;99.90
54461;DHT22;40371;49.414;11.010;2022-12-29T15:09:36;11.40;99.90
54461;DHT22;40371;49.414;11.010;2022-12-29T15:14:51;11.50;99.90
54461;DHT22;40371;49.414;11.010;2022-12-29T15:17:32;11.40;99.90
54461;DHT22;40371;49.414;11.010;2022-12-29T15:20:20;11.40;99.90
54461;DHT22;40371;49.414;11.010;2022-12-29T15:22:57;11.30;99.90
54461;DHT22;40371;49.414;11.010;2022-12-29T15:25:23;11.20;99.90
54461;DHT22;40371;49.414;11.010;2022-12-29T15:28:00;11.30;99.90
54461;DHT22;40371;49.414;11.010;2022-12-29T15:30:26;11.30;99.90
54461;DHT22;40371;49.414;11.010;2022-12-29T15:32:51;11.20;99.90
54461;DHT22;40371;49.414;11.010;2022-12-29T15:35:30;11.30;99.90
54461;DHT22;40371;49.414;11.010;2022-12-29T15:37:58;11.30;99.90
54461;DHT22;40371;49.414;11.010;2022-12-29T15:40:30;11.30;99.90
54461;DHT22;40371;49.414;11.010;2022-12-29T15:43:21;11.20;99.90
54461;DHT22;40371;49.414;11.010;2022-12-29T15:45:50;11.20;99.90
54461;DHT22;40371;49.414;11.010;2022-12-29T15:48:21;11.10;99.90
54461;DHT22;40371;49.414;11.010;2022-12-29T15:50:48;11.10;99.90
54461;DHT22;40371;49.414;11.010;2022-12-29T15:53:26;11.10;99.90
54461;DHT22;40371;49.414;11.010;2022-12-29T15:55:57;11.00;99.90
54461;DHT22;40371;49.414;11.010;2022-12-29T15:58:27;11.00;99.90
54461;DHT22;40371;49.414;11.010;2022-12-29T16:00:58;11.00;99.90
54461;DHT22;40371;49.414;11.010;2022-12-29T16:03:26;11.10;99.90
54461;DHT22;40371;49.414;11.010;2022-12-29T16:05:56;11.00;99.90
54461;DHT22;40371;49.414;11.010;2022-12-29T16:08:34;11.00;99.90
54461;DHT22;40371;49.414;11.010;2022-12-29T16:11:07;11.00;99.90
54461;DHT22;40371;49.414;11.010;2022-12-29T16:13:40;11.00;99.90
54461;DHT22;40371;49.414;11.010;2022-12-29T16:16:12;11.00;99.90
54461;DHT22;40371;49.414;11.010;2022-12-29T16:18:39;11.00;99.90
54461;DHT22;40371;49.414;11.010;2022-12-29T16:21:13;10.90;99.90
54461;DHT22;40371;49.414;11.010;2022-12-29T16:23:43;10.90;99.90
54461;DHT22;40371;49.414;11.010;2022-12-29T16:26:20;11.00;99.90
54461;DHT22;40371;49.414;11.010;2022-12-29T16:28:49;11.00;99.90
54461;DHT22;40371;49.414;11.010;2022-12-29T16:31:35;10.90;99.90
54461;DHT22;40371;49.414;11.010;2022-12-29T16:34:41;10.90;99.90
54461;DHT22;40371;49.414;11.010;2022-12-29T16:37:30;10.90;99.90
54461;DHT22;40371;49.414;11.010;2022-12-29T16:39:56;11.00;99.90
54461;DHT22;40371;49.414;11.010;2022-12-29T16:48:03;10.90;99.90
54461;DHT22;40371;49.414;11.010;2022-12-29T16:50:36;10.90;99.90
54461;DHT22;40371;49.414;11.010;2022-12-29T16:53:03;10.90;99.90
54461;DHT22;40371;49.414;11.010;2022-12-29T16:55:29;10.90;99.90
54461;DHT22;40371;49.414;11.010;2022-12-29T16:57:56;11.00;99.90
54461;DHT22;40371;49.414;11.010;2022-12-29T17:00:31;10.90;99.90
54461;DHT22;40371;49.414;11.010;2022-12-29T17:03:00;10.90;99.90
54461;DHT22;40371;49.414;11.010;2022-12-29T17:05:27;10.90;99.90
54461;DHT22;40371;49.414;11.010;2022-12-29T17:07:52;10.90;99.90
54461;DHT22;40371;49.414;11.010;2022-12-29T17:10:18;11.00;99.90
54461;DHT22;40371;49.414;11.010;2022-12-29T17:12:46;11.00;99.90
54461;DHT22;40371;49.414;11.010;2022-12-29T17:15:25;10.90;99.90
54461;DHT22;40371;49.414;11.010;2022-12-29T17:17:53;10.90;99.90
54461;DHT22;40371;49.414;11.010;2022-12-29T17:20:22;10.90;99.90
54461;DHT22;40371;49.414;11.010;2022-12-29T17:22:49;10.90;99.90
54461;DHT22;40371;49.414;11.010;2022-12-29T17:25:21;10.80;99.90
54461;DHT22;40371;49.414;11.010;2022-12-29T17:27:55;10.70;99.90
54461;DHT22;40371;49.414;11.010;2022-12-29T17:30:25;10.70;99.90
54461;DHT22;40371;49.414;11.010;2022-12-29T17:33:13;10.60;99.90
54461;DHT22;40371;49.414;11.010;2022-12-29T17:35:39;10.40;99.90
54461;DHT22;40371;49.414;11.010;2022-12-29T17:38:29;10.30;99.90
54461;DHT22;40371;49.414;11.010;2022-12-29T17:40:56;10.20;99.90
54461;DHT22;40371;49.414;11.010;2022-12-29T17:43:22;10.10;99.90
54461;DHT22;40371;49.414;11.010;2022-12-29T17:45:55;10.10;99.90
54461;DHT22;40371;49.414;11.010;2022-12-29T17:48:21;10.00;99.90
54461;DHT22;40371;49.414;11.010;2022-12-29T17:50:49;10.00;99.90
54461;DHT22;40371;49.414;11.010;2022-12-29T17:53:20;9.90;99.90